createdAt,value
2017-04-04T00:00:22.801Z,20.23
2017-04-04T00:00:50.958Z,20.27
2017-04-04T00:01:19.072Z,20.2
2017-04-04T00:01:47.394Z,20.26
2017-04-04T00:02:15.841Z,20.32
2017-04-04T00:02:43.905Z,20.29
2017-04-04T00:03:12.006Z,20.26
2017-04-04T00:03:40.170Z,20.29
2017-04-04T00:04:08.619Z,20.19
2017-04-04T00:04:36.983Z,20.22
2017-04-04T00:05:05.324Z,20.19
2017-04-04T00:05:33.478Z,20.23
2017-04-04T00:06:01.743Z,20.2
2017-04-04T00:06:30.008Z,20.23
2017-04-04T00:06:58.298Z,20.16
2017-04-04T00:07:26.617Z,20.23
2017-04-04T00:07:54.668Z,20.19
2017-04-04T00:08:22.935Z,20.19
2017-04-04T00:08:51.290Z,20.16
2017-04-04T00:09:19.589Z,20.16
2017-04-04T00:09:47.824Z,20.07
2017-04-04T00:10:16.031Z,20.08
2017-04-04T00:10:44.314Z,20.08
2017-04-04T00:11:12.731Z,20.1
2017-04-04T00:11:41.141Z,19.95
2017-04-04T00:12:09.221Z,20.02
2017-04-04T00:12:37.619Z,19.98
2017-04-04T00:13:05.867Z,19.98
2017-04-04T00:13:34.072Z,19.95
2017-04-04T00:14:02.204Z,20.01
2017-04-04T00:14:31.063Z,19.93
2017-04-04T00:14:59.354Z,19.89
2017-04-04T00:15:27.500Z,19.87
2017-04-04T00:15:55.929Z,19.86
2017-04-04T00:16:24.289Z,19.8
2017-04-04T00:16:52.415Z,19.8
2017-04-04T00:17:20.665Z,19.8
2017-04-04T00:17:49.000Z,19.72
2017-04-04T00:18:17.287Z,19.72
2017-04-04T00:18:45.517Z,19.78
2017-04-04T00:19:13.613Z,19.78
2017-04-04T00:19:41.879Z,19.72
2017-04-04T00:20:10.153Z,19.75
2017-04-04T00:20:38.389Z,19.72
2017-04-04T00:21:06.707Z,19.72
2017-04-04T00:21:35.075Z,19.74
2017-04-04T00:22:03.365Z,19.74
2017-04-04T00:22:31.776Z,19.74
2017-04-04T00:23:00.097Z,19.74
2017-04-04T00:23:28.286Z,19.64
2017-04-04T00:23:56.496Z,19.72
2017-04-04T00:24:24.795Z,19.74
2017-04-04T00:24:53.067Z,19.78
2017-04-04T00:25:21.407Z,19.68
2017-04-04T00:25:49.467Z,19.75
2017-04-04T00:26:17.975Z,19.72
2017-04-04T00:26:46.075Z,19.7
2017-04-04T00:27:14.341Z,19.7
2017-04-04T00:27:42.514Z,19.74
2017-04-04T00:28:10.446Z,19.75
2017-04-04T00:28:38.620Z,19.78
2017-04-04T00:29:06.967Z,19.74
2017-04-04T00:29:35.068Z,19.8
2017-04-04T00:30:03.265Z,19.78
2017-04-04T00:30:31.544Z,19.71
2017-04-04T00:30:59.824Z,19.78
2017-04-04T00:31:27.863Z,19.78
2017-04-04T00:31:56.212Z,19.75
2017-04-04T00:32:24.413Z,19.75
2017-04-04T00:32:52.743Z,19.74
2017-04-04T00:33:21.163Z,19.74
2017-04-04T00:33:49.416Z,19.72
2017-04-04T00:34:17.704Z,19.72
2017-04-04T00:34:45.799Z,19.72
2017-04-04T00:35:14.199Z,19.75
2017-04-04T00:35:42.700Z,19.74
2017-04-04T00:36:11.054Z,19.75
2017-04-04T00:36:39.433Z,19.83
2017-04-04T00:37:07.625Z,19.78
2017-04-04T00:37:35.886Z,19.74
2017-04-04T00:38:04.086Z,19.83
2017-04-04T00:38:32.349Z,19.74
2017-04-04T00:39:00.726Z,19.71
2017-04-04T00:39:28.915Z,19.74
2017-04-04T00:39:57.263Z,19.72
2017-04-04T00:40:25.454Z,19.75
2017-04-04T00:40:53.570Z,19.71
2017-04-04T00:41:21.874Z,19.7
2017-04-04T00:41:50.075Z,19.75
2017-04-04T00:42:18.295Z,19.72
2017-04-04T00:42:46.658Z,19.71
2017-04-04T00:43:14.884Z,19.7
2017-04-04T00:43:43.331Z,19.75
2017-04-04T00:44:11.785Z,19.74
2017-04-04T00:44:40.160Z,19.74
2017-04-04T00:45:08.442Z,19.74
2017-04-04T00:45:37.421Z,19.72
2017-04-04T00:46:05.753Z,19.72
2017-04-04T00:46:34.009Z,19.74
2017-04-04T00:47:02.189Z,19.72
2017-04-04T00:47:30.271Z,19.75
2017-04-04T00:47:58.487Z,19.72
2017-04-04T00:48:26.655Z,19.72
2017-04-04T00:48:54.986Z,19.7
2017-04-04T00:49:23.310Z,19.79
2017-04-04T00:49:51.746Z,19.71
2017-04-04T00:50:20.180Z,19.71
2017-04-04T00:50:48.505Z,19.72
2017-04-04T00:51:16.907Z,19.74
2017-04-04T00:51:45.264Z,19.72
2017-04-04T00:52:13.657Z,19.75
2017-04-04T00:52:41.948Z,19.74
2017-04-04T00:53:10.261Z,19.74
2017-04-04T00:53:38.627Z,19.85
2017-04-04T00:54:06.975Z,19.71
2017-04-04T00:54:35.180Z,19.71
2017-04-04T00:55:03.445Z,19.75
2017-04-04T00:55:31.649Z,19.75
2017-04-04T00:56:00.011Z,19.75
2017-04-04T00:56:28.254Z,19.71
2017-04-04T00:56:56.589Z,19.74
2017-04-04T00:57:24.928Z,19.72
2017-04-04T00:57:53.400Z,19.74
2017-04-04T00:58:21.535Z,19.72
2017-04-04T00:58:49.887Z,19.67
2017-04-04T00:59:18.125Z,19.72
2017-04-04T00:59:46.444Z,19.78
2017-04-04T01:00:14.693Z,19.8
2017-04-04T01:00:42.899Z,19.74
2017-04-04T01:01:11.390Z,19.67
2017-04-04T01:01:40.007Z,19.72
2017-04-04T01:02:08.825Z,19.72
2017-04-04T01:02:37.254Z,19.74
2017-04-04T01:03:05.601Z,19.82
2017-04-04T01:03:33.963Z,19.75
2017-04-04T01:04:02.247Z,19.83
2017-04-04T01:04:30.506Z,19.83
2017-04-04T01:04:58.874Z,19.83
2017-04-04T01:05:27.235Z,19.86
2017-04-04T01:05:55.436Z,19.87
2017-04-04T01:06:23.834Z,19.8
2017-04-04T01:06:52.206Z,19.8
2017-04-04T01:07:20.645Z,19.79
2017-04-04T01:07:48.951Z,19.8
2017-04-04T01:08:17.299Z,19.9
2017-04-04T01:08:45.684Z,19.86
2017-04-04T01:09:14.304Z,19.8
2017-04-04T01:09:42.603Z,19.85
2017-04-04T01:10:10.734Z,19.85
2017-04-04T01:10:38.985Z,19.83
2017-04-04T01:11:07.375Z,19.71
2017-04-04T01:11:35.781Z,19.85
2017-04-04T01:12:04.195Z,19.75
2017-04-04T01:12:32.583Z,19.71
2017-04-04T01:13:00.879Z,19.71
2017-04-04T01:13:29.230Z,19.71
2017-04-04T01:13:57.697Z,19.79
2017-04-04T01:14:26.263Z,19.71
2017-04-04T01:14:54.459Z,19.83
2017-04-04T01:15:22.633Z,19.75
2017-04-04T01:15:50.860Z,19.68
2017-04-04T01:16:19.226Z,19.78
2017-04-04T01:16:47.290Z,19.75
2017-04-04T01:17:15.651Z,19.75
2017-04-04T01:17:43.958Z,19.7
2017-04-04T01:18:12.169Z,19.68
2017-04-04T01:18:40.430Z,19.74
2017-04-04T01:19:08.668Z,19.63
2017-04-04T01:19:36.831Z,19.7
2017-04-04T01:20:05.003Z,19.63
2017-04-04T01:20:33.202Z,19.71
2017-04-04T01:21:01.171Z,19.7
2017-04-04T01:21:29.409Z,19.8
2017-04-04T01:21:57.538Z,19.65
2017-04-04T01:22:25.863Z,19.64
2017-04-04T01:22:54.349Z,19.67
2017-04-04T01:23:22.787Z,19.67
2017-04-04T01:23:51.161Z,19.68
2017-04-04T01:24:19.933Z,19.67
2017-04-04T01:24:48.188Z,19.67
2017-04-04T01:25:16.468Z,19.67
2017-04-04T01:25:44.911Z,19.53
2017-04-04T01:26:13.314Z,19.57
2017-04-04T01:26:41.686Z,19.53
2017-04-04T01:27:09.822Z,19.63
2017-04-04T01:27:38.271Z,19.64
2017-04-04T01:28:06.955Z,19.64
2017-04-04T01:28:35.379Z,19.56
2017-04-04T01:29:03.575Z,19.53
2017-04-04T01:29:31.899Z,19.61
2017-04-04T01:30:00.287Z,19.49
2017-04-04T01:30:28.458Z,19.4
2017-04-04T01:30:56.665Z,19.5
2017-04-04T01:31:24.975Z,19.43
2017-04-04T01:31:53.087Z,19.45
2017-04-04T01:32:21.385Z,19.38
2017-04-04T01:32:49.539Z,19.47
2017-04-04T01:33:17.879Z,19.5
2017-04-04T01:33:46.234Z,19.47
2017-04-04T01:34:14.863Z,19.53
2017-04-04T01:34:43.173Z,19.4
2017-04-04T01:35:11.423Z,19.46
2017-04-04T01:35:39.968Z,19.4
2017-04-04T01:36:08.245Z,19.43
2017-04-04T01:36:36.342Z,19.43
2017-04-04T01:37:04.582Z,19.42
2017-04-04T01:37:32.985Z,19.46
2017-04-04T01:38:01.310Z,19.38
2017-04-04T01:38:29.676Z,19.46
2017-04-04T01:38:58.132Z,19.5
2017-04-04T01:39:26.349Z,19.27
2017-04-04T01:39:54.623Z,19.34
2017-04-04T01:40:22.894Z,19.38
2017-04-04T01:40:51.289Z,19.32
2017-04-04T01:41:19.644Z,19.3
2017-04-04T01:41:47.931Z,19.32
2017-04-04T01:42:16.377Z,19.24
2017-04-04T01:42:44.829Z,19.23
2017-04-04T01:43:13.188Z,19.24
2017-04-04T01:43:41.379Z,19.24
2017-04-04T01:44:09.629Z,19.19
2017-04-04T01:44:37.995Z,19.27
2017-04-04T01:45:06.139Z,19.24
2017-04-04T01:45:34.208Z,19.2
2017-04-04T01:46:02.676Z,19.13
2017-04-04T01:46:30.954Z,19.15
2017-04-04T01:46:59.285Z,19.1
2017-04-04T01:47:27.682Z,19.13
2017-04-04T01:47:56.025Z,19.09
2017-04-04T01:48:24.233Z,19.16
2017-04-04T01:48:52.568Z,19.02
2017-04-04T01:49:20.844Z,19.05
2017-04-04T01:49:49.298Z,19.09
2017-04-04T01:50:17.634Z,19.06
2017-04-04T01:50:46.075Z,19.06
2017-04-04T01:51:14.444Z,19
2017-04-04T01:51:42.759Z,19.02
2017-04-04T01:52:11.056Z,19.12
2017-04-04T01:52:39.402Z,19.12
2017-04-04T01:53:07.740Z,18.99
2017-04-04T01:53:36.070Z,19.05
2017-04-04T01:54:04.487Z,19.05
2017-04-04T01:54:32.855Z,18.99
2017-04-04T01:55:01.229Z,19.15
2017-04-04T01:55:29.337Z,19.05
2017-04-04T01:55:57.664Z,19.05
2017-04-04T01:56:25.952Z,19.05
2017-04-04T01:56:54.380Z,19.05
2017-04-04T01:57:22.663Z,19
2017-04-04T01:57:50.941Z,19
2017-04-04T01:58:19.612Z,18.96
2017-04-04T01:58:47.911Z,19
2017-04-04T01:59:16.302Z,19.05
2017-04-04T01:59:44.606Z,19.05
2017-04-04T02:00:13.035Z,18.96
2017-04-04T02:00:41.305Z,18.97
2017-04-04T02:01:09.534Z,18.96
2017-04-04T02:01:37.641Z,19
2017-04-04T02:02:05.870Z,18.97
2017-04-04T02:02:34.139Z,18.91
2017-04-04T02:03:02.328Z,18.94
2017-04-04T02:03:30.703Z,18.9
2017-04-04T02:03:59.260Z,18.9
2017-04-04T02:04:27.592Z,18.89
2017-04-04T02:04:55.777Z,18.86
2017-04-04T02:05:24.005Z,18.79
2017-04-04T02:05:52.344Z,18.84
2017-04-04T02:06:20.633Z,18.87
2017-04-04T02:06:48.887Z,18.86
2017-04-04T02:07:17.153Z,18.81
2017-04-04T02:07:45.199Z,18.9
2017-04-04T02:08:13.864Z,18.84
2017-04-04T02:08:42.222Z,18.78
2017-04-04T02:09:10.477Z,18.82
2017-04-04T02:09:38.862Z,18.87
2017-04-04T02:10:06.975Z,18.86
2017-04-04T02:10:35.242Z,18.9
2017-04-04T02:11:03.401Z,18.89
2017-04-04T02:11:31.622Z,18.82
2017-04-04T02:11:59.851Z,18.87
2017-04-04T02:12:28.154Z,18.94
2017-04-04T02:12:56.469Z,18.82
2017-04-04T02:13:24.699Z,18.94
2017-04-04T02:13:53.104Z,18.91
2017-04-04T02:14:21.422Z,18.89
2017-04-04T02:14:49.674Z,18.89
2017-04-04T02:15:18.088Z,18.87
2017-04-04T02:15:46.181Z,18.89
2017-04-04T02:16:14.414Z,18.86
2017-04-04T02:16:43.010Z,18.89
2017-04-04T02:17:11.428Z,18.79
2017-04-04T02:17:39.790Z,18.9
2017-04-04T02:18:08.187Z,18.82
2017-04-04T02:18:36.568Z,18.93
2017-04-04T02:19:04.852Z,18.82
2017-04-04T02:19:33.093Z,18.86
2017-04-04T02:20:01.276Z,18.82
2017-04-04T02:20:29.804Z,18.81
2017-04-04T02:20:58.216Z,18.76
2017-04-04T02:21:26.524Z,18.87
2017-04-04T02:21:54.905Z,18.84
2017-04-04T02:22:23.205Z,18.82
2017-04-04T02:22:51.551Z,18.9
2017-04-04T02:23:19.848Z,18.9
2017-04-04T02:23:48.115Z,18.82
2017-04-04T02:24:16.402Z,18.86
2017-04-04T02:24:44.560Z,18.81
2017-04-04T02:25:12.782Z,18.79
2017-04-04T02:25:40.986Z,18.86
2017-04-04T02:26:09.189Z,18.89
2017-04-04T02:26:37.559Z,18.82
2017-04-04T02:27:05.861Z,18.79
2017-04-04T02:27:34.072Z,18.86
2017-04-04T02:28:02.147Z,18.84
2017-04-04T02:28:30.329Z,18.78
2017-04-04T02:28:58.422Z,18.78
2017-04-04T02:29:26.604Z,18.82
2017-04-04T02:29:54.884Z,18.82
2017-04-04T02:30:22.929Z,18.84
2017-04-04T02:30:51.235Z,18.82
2017-04-04T02:31:19.488Z,18.84
2017-04-04T02:31:47.719Z,18.86
2017-04-04T02:32:15.975Z,18.86
2017-04-04T02:32:44.131Z,18.79
2017-04-04T02:33:12.349Z,18.81
2017-04-04T02:33:40.511Z,18.9
2017-04-04T02:34:08.733Z,18.86
2017-04-04T02:34:36.991Z,18.9
2017-04-04T02:35:05.211Z,18.84
2017-04-04T02:35:33.426Z,18.91
2017-04-04T02:36:01.515Z,18.86
2017-04-04T02:36:29.713Z,18.82
2017-04-04T02:36:58.018Z,18.79
2017-04-04T02:37:26.192Z,18.79
2017-04-04T02:37:54.283Z,18.79
2017-04-04T02:38:22.738Z,18.79
2017-04-04T02:38:51.035Z,18.86
2017-04-04T02:39:19.315Z,18.91
2017-04-04T02:39:47.628Z,18.82
2017-04-04T02:40:15.889Z,18.82
2017-04-04T02:40:44.180Z,18.82
2017-04-04T02:41:12.130Z,18.82
2017-04-04T02:41:40.376Z,18.82
2017-04-04T02:42:08.470Z,18.89
2017-04-04T02:42:36.782Z,18.78
2017-04-04T02:43:04.812Z,18.81
2017-04-04T02:43:33.191Z,18.86
2017-04-04T02:44:01.532Z,18.87
2017-04-04T02:44:29.755Z,18.81
2017-04-04T02:44:58.037Z,18.76
2017-04-04T02:45:26.407Z,18.79
2017-04-04T02:45:54.525Z,18.79
2017-04-04T02:46:22.753Z,18.74
2017-04-04T02:46:51.113Z,18.75
2017-04-04T02:47:19.632Z,18.72
2017-04-04T02:47:47.844Z,18.72
2017-04-04T02:48:16.093Z,18.71
2017-04-04T02:48:44.347Z,18.74
2017-04-04T02:49:12.596Z,18.74
2017-04-04T02:49:40.805Z,18.65
2017-04-04T02:50:08.865Z,18.66
2017-04-04T02:50:37.092Z,18.69
2017-04-04T02:51:05.330Z,18.68
2017-04-04T02:51:33.945Z,18.71
2017-04-04T02:52:02.222Z,18.66
2017-04-04T02:52:30.505Z,18.66
2017-04-04T02:52:58.814Z,18.74
2017-04-04T02:53:26.981Z,18.71
2017-04-04T02:53:55.129Z,18.69
2017-04-04T02:54:23.463Z,18.72
2017-04-04T02:54:51.523Z,18.66
2017-04-04T02:55:19.786Z,18.71
2017-04-04T02:55:47.971Z,18.72
2017-04-04T02:56:16.115Z,18.74
2017-04-04T02:56:44.435Z,18.68
2017-04-04T02:57:12.620Z,18.61
2017-04-04T02:57:40.792Z,18.63
2017-04-04T02:58:09.104Z,18.65
2017-04-04T02:58:37.351Z,18.66
2017-04-04T02:59:05.462Z,18.66
2017-04-04T02:59:33.700Z,18.63
2017-04-04T03:00:01.991Z,18.69
2017-04-04T03:00:30.329Z,18.59
2017-04-04T03:00:58.618Z,18.66
2017-04-04T03:01:26.786Z,18.65
2017-04-04T03:01:54.871Z,18.65
2017-04-04T03:02:23.192Z,18.69
2017-04-04T03:02:51.351Z,18.63
2017-04-04T03:03:19.789Z,18.63
2017-04-04T03:03:48.046Z,18.63
2017-04-04T03:04:16.203Z,18.61
2017-04-04T03:04:44.353Z,18.63
2017-04-04T03:05:12.438Z,18.54
2017-04-04T03:05:40.681Z,18.51
2017-04-04T03:06:08.835Z,18.53
2017-04-04T03:06:37.096Z,18.61
2017-04-04T03:07:06.043Z,18.61
2017-04-04T03:07:34.253Z,18.66
2017-04-04T03:08:02.530Z,18.53
2017-04-04T03:08:30.729Z,18.66
2017-04-04T03:08:58.942Z,18.6
2017-04-04T03:09:27.116Z,18.51
2017-04-04T03:09:55.255Z,18.57
2017-04-04T03:10:23.528Z,18.54
2017-04-04T03:10:51.806Z,18.61
2017-04-04T03:11:20.065Z,18.59
2017-04-04T03:11:48.308Z,18.59
2017-04-04T03:12:16.482Z,18.59
2017-04-04T03:12:44.561Z,18.61
2017-04-04T03:13:12.614Z,18.61
2017-04-04T03:13:40.797Z,18.51
2017-04-04T03:14:09.016Z,18.63
2017-04-04T03:14:37.662Z,18.56
2017-04-04T03:15:05.838Z,18.56
2017-04-04T03:15:34.038Z,18.56
2017-04-04T03:16:02.253Z,18.51
2017-04-04T03:16:30.560Z,18.54
2017-04-04T03:16:58.821Z,18.61
2017-04-04T03:17:26.913Z,18.51
2017-04-04T03:17:55.178Z,18.57
2017-04-04T03:18:23.446Z,18.56
2017-04-04T03:18:51.636Z,18.5
2017-04-04T03:19:20.011Z,18.54
2017-04-04T03:19:48.155Z,18.59
2017-04-04T03:20:16.394Z,18.6
2017-04-04T03:20:44.633Z,18.53
2017-04-04T03:21:12.755Z,18.61
2017-04-04T03:21:40.727Z,18.56
2017-04-04T03:22:08.939Z,18.63
2017-04-04T03:22:37.264Z,18.61
2017-04-04T03:23:05.448Z,18.57
2017-04-04T03:23:33.766Z,18.54
2017-04-04T03:24:01.958Z,18.49
2017-04-04T03:24:30.120Z,18.51
2017-04-04T03:24:58.375Z,18.45
2017-04-04T03:25:26.668Z,18.5
2017-04-04T03:25:54.931Z,18.51
2017-04-04T03:26:23.204Z,18.49
2017-04-04T03:26:51.480Z,18.51
2017-04-04T03:27:19.451Z,18.47
2017-04-04T03:27:47.841Z,18.51
2017-04-04T03:28:15.981Z,18.49
2017-04-04T03:28:44.352Z,18.47
2017-04-04T03:29:12.511Z,18.5
2017-04-04T03:29:40.823Z,18.47
2017-04-04T03:30:08.968Z,18.54
2017-04-04T03:30:37.100Z,18.54
2017-04-04T03:31:05.380Z,18.5
2017-04-04T03:31:33.653Z,18.49
2017-04-04T03:32:01.858Z,18.5
2017-04-04T03:32:30.021Z,18.51
2017-04-04T03:32:58.224Z,18.51
2017-04-04T03:33:26.315Z,18.49
2017-04-04T03:33:54.567Z,18.53
2017-04-04T03:34:22.927Z,18.6
2017-04-04T03:34:51.486Z,18.56
2017-04-04T03:35:19.731Z,18.56
2017-04-04T03:35:47.973Z,18.61
2017-04-04T03:36:16.328Z,18.63
2017-04-04T03:36:44.457Z,18.6
2017-04-04T03:37:12.620Z,18.59
2017-04-04T03:37:40.621Z,18.5
2017-04-04T03:38:08.847Z,18.5
2017-04-04T03:38:37.360Z,18.51
2017-04-04T03:39:05.522Z,18.51
2017-04-04T03:39:33.687Z,18.6
2017-04-04T03:40:01.947Z,18.53
2017-04-04T03:40:30.213Z,18.6
2017-04-04T03:40:58.553Z,18.59
2017-04-04T03:41:26.880Z,18.6
2017-04-04T03:41:54.836Z,18.53
2017-04-04T03:42:23.112Z,18.63
2017-04-04T03:42:51.357Z,18.57
2017-04-04T03:43:19.494Z,18.6
2017-04-04T03:43:47.667Z,18.49
2017-04-04T03:44:15.925Z,18.63
2017-04-04T03:44:43.962Z,18.61
2017-04-04T03:45:12.095Z,18.63
2017-04-04T03:45:40.352Z,18.56
2017-04-04T03:46:08.641Z,18.63
2017-04-04T03:46:36.881Z,18.61
2017-04-04T03:47:05.043Z,18.6
2017-04-04T03:47:33.322Z,18.5
2017-04-04T03:48:01.646Z,18.53
2017-04-04T03:48:30.009Z,18.57
2017-04-04T03:48:58.230Z,18.54
2017-04-04T03:49:26.486Z,18.59
2017-04-04T03:49:54.661Z,18.59
2017-04-04T03:50:22.857Z,18.6
2017-04-04T03:50:50.938Z,18.61
2017-04-04T03:51:19.265Z,18.57
2017-04-04T03:51:47.596Z,18.49
2017-04-04T03:52:15.941Z,18.57
2017-04-04T03:52:44.200Z,18.57
2017-04-04T03:53:12.495Z,18.61
2017-04-04T03:53:40.762Z,18.54
2017-04-04T03:54:08.968Z,18.54
2017-04-04T03:54:37.157Z,18.59
2017-04-04T03:55:05.312Z,18.6
2017-04-04T03:55:33.506Z,18.65
2017-04-04T03:56:01.633Z,18.6
2017-04-04T03:56:29.918Z,18.57
2017-04-04T03:56:58.066Z,18.61
2017-04-04T03:57:26.159Z,18.65
2017-04-04T03:57:54.465Z,18.66
2017-04-04T03:58:22.768Z,18.61
2017-04-04T03:58:51.254Z,18.65
2017-04-04T03:59:19.464Z,18.74
2017-04-04T03:59:47.666Z,18.69
2017-04-04T04:00:15.833Z,18.68
2017-04-04T04:00:44.144Z,18.74
2017-04-04T04:01:12.361Z,18.68
2017-04-04T04:01:40.531Z,18.71
2017-04-04T04:02:08.754Z,18.66
2017-04-04T04:02:36.914Z,18.68
2017-04-04T04:03:05.110Z,18.72
2017-04-04T04:03:33.157Z,18.69
2017-04-04T04:04:01.464Z,18.71
2017-04-04T04:04:29.725Z,18.68
2017-04-04T04:04:58.004Z,18.71
2017-04-04T04:05:26.129Z,18.68
2017-04-04T04:05:54.396Z,18.68
2017-04-04T04:06:22.720Z,18.66
2017-04-04T04:06:50.970Z,18.69
2017-04-04T04:07:19.310Z,18.66
2017-04-04T04:07:47.422Z,18.71
2017-04-04T04:08:15.505Z,18.69
2017-04-04T04:08:43.787Z,18.72
2017-04-04T04:09:11.938Z,18.75
2017-04-04T04:09:40.155Z,18.72
2017-04-04T04:10:08.284Z,18.75
2017-04-04T04:10:36.555Z,18.75
2017-04-04T04:11:04.711Z,18.72
2017-04-04T04:11:32.940Z,18.72
2017-04-04T04:12:01.182Z,18.69
2017-04-04T04:12:29.460Z,18.69
2017-04-04T04:12:57.672Z,18.72
2017-04-04T04:13:25.948Z,18.71
2017-04-04T04:13:54.301Z,18.76
2017-04-04T04:14:22.575Z,18.79
2017-04-04T04:14:50.836Z,18.72
2017-04-04T04:15:19.057Z,18.76
2017-04-04T04:15:47.146Z,18.72
2017-04-04T04:16:15.377Z,18.78
2017-04-04T04:16:43.640Z,18.75
2017-04-04T04:17:11.780Z,18.78
2017-04-04T04:17:40.010Z,18.71
2017-04-04T04:18:08.273Z,18.81
2017-04-04T04:18:36.441Z,18.78
2017-04-04T04:19:04.587Z,18.71
2017-04-04T04:19:32.832Z,18.82
2017-04-04T04:20:00.863Z,18.82
2017-04-04T04:20:29.154Z,18.82
2017-04-04T04:20:57.472Z,18.76
2017-04-04T04:21:25.796Z,18.84
2017-04-04T04:21:53.971Z,18.74
2017-04-04T04:22:22.352Z,18.74
2017-04-04T04:22:50.566Z,18.76
2017-04-04T04:23:18.720Z,18.71
2017-04-04T04:23:46.963Z,18.71
2017-04-04T04:24:15.125Z,18.72
2017-04-04T04:24:43.372Z,18.74
2017-04-04T04:25:11.674Z,18.69
2017-04-04T04:25:39.917Z,18.68
2017-04-04T04:26:08.101Z,18.71
2017-04-04T04:26:36.331Z,18.74
2017-04-04T04:27:04.577Z,18.69
2017-04-04T04:27:32.835Z,18.66
2017-04-04T04:28:01.005Z,18.72
2017-04-04T04:28:29.180Z,18.68
2017-04-04T04:28:57.440Z,18.69
2017-04-04T04:29:25.727Z,18.69
2017-04-04T04:29:53.879Z,18.61
2017-04-04T04:30:22.118Z,18.65
2017-04-04T04:30:50.275Z,18.68
2017-04-04T04:31:18.424Z,18.69
2017-04-04T04:31:46.572Z,18.61
2017-04-04T04:32:14.645Z,18.61
2017-04-04T04:32:42.687Z,18.59
2017-04-04T04:33:10.939Z,18.65
2017-04-04T04:33:39.252Z,18.53
2017-04-04T04:34:07.639Z,18.56
2017-04-04T04:34:35.680Z,18.54
2017-04-04T04:35:03.970Z,18.56
2017-04-04T04:35:32.214Z,18.49
2017-04-04T04:36:00.291Z,18.49
2017-04-04T04:36:28.543Z,18.49
2017-04-04T04:36:56.732Z,18.51
2017-04-04T04:37:24.997Z,18.53
2017-04-04T04:37:53.130Z,18.45
2017-04-04T04:38:21.473Z,18.47
2017-04-04T04:38:49.748Z,18.41
2017-04-04T04:39:17.998Z,18.54
2017-04-04T04:39:46.275Z,18.45
2017-04-04T04:40:14.517Z,18.45
2017-04-04T04:40:42.520Z,18.38
2017-04-04T04:41:10.681Z,18.49
2017-04-04T04:41:38.850Z,18.36
2017-04-04T04:42:07.113Z,18.38
2017-04-04T04:42:35.246Z,18.41
2017-04-04T04:43:03.519Z,18.31
2017-04-04T04:43:31.761Z,18.27
2017-04-04T04:44:00.030Z,18.32
2017-04-04T04:44:28.122Z,18.29
2017-04-04T04:44:56.352Z,18.29
2017-04-04T04:45:24.631Z,18.31
2017-04-04T04:45:52.871Z,18.34
2017-04-04T04:46:21.057Z,18.31
2017-04-04T04:46:49.353Z,18.27
2017-04-04T04:47:17.620Z,18.27
2017-04-04T04:47:45.859Z,18.31
2017-04-04T04:48:14.197Z,18.26
2017-04-04T04:48:42.450Z,18.26
2017-04-04T04:49:10.627Z,18.31
2017-04-04T04:49:38.676Z,18.24
2017-04-04T04:50:06.744Z,18.31
2017-04-04T04:50:34.947Z,18.31
2017-04-04T04:51:03.059Z,18.24
2017-04-04T04:51:31.156Z,18.19
2017-04-04T04:51:59.421Z,18.31
2017-04-04T04:52:27.721Z,18.19
2017-04-04T04:52:55.934Z,18.26
2017-04-04T04:53:24.180Z,18.2
2017-04-04T04:53:52.359Z,18.29
2017-04-04T04:54:20.250Z,18.17
2017-04-04T04:54:48.405Z,18.17
2017-04-04T04:55:16.626Z,18.13
2017-04-04T04:55:44.776Z,18.23
2017-04-04T04:56:12.972Z,18.1
2017-04-04T04:56:41.162Z,18.11
2017-04-04T04:57:09.082Z,18.13
2017-04-04T04:57:37.285Z,18.05
2017-04-04T04:58:05.515Z,18.24
2017-04-04T04:58:33.712Z,18.2
2017-04-04T04:59:01.997Z,18.2
2017-04-04T04:59:30.257Z,18.21
2017-04-04T04:59:58.388Z,18.16
2017-04-04T05:00:26.577Z,18.1
2017-04-04T05:00:54.699Z,18.17
2017-04-04T05:01:22.918Z,18.1
2017-04-04T05:01:51.085Z,18.11
2017-04-04T05:02:19.139Z,18.17
2017-04-04T05:02:47.167Z,18.08
2017-04-04T05:03:15.551Z,18.11
2017-04-04T05:03:43.672Z,18.1
2017-04-04T05:04:12.065Z,17.99
2017-04-04T05:04:40.289Z,17.98
2017-04-04T05:05:08.454Z,17.94
2017-04-04T05:05:36.625Z,17.9
2017-04-04T05:06:04.854Z,17.92
2017-04-04T05:06:32.998Z,17.9
2017-04-04T05:07:01.140Z,17.83
2017-04-04T05:07:29.434Z,17.87
2017-04-04T05:07:57.651Z,17.98
2017-04-04T05:08:25.941Z,17.84
2017-04-04T05:08:53.987Z,17.9
2017-04-04T05:09:22.093Z,17.88
2017-04-04T05:09:50.189Z,17.92
2017-04-04T05:10:18.533Z,18.01
2017-04-04T05:10:46.589Z,17.95
2017-04-04T05:11:14.837Z,17.96
2017-04-04T05:11:42.953Z,17.99
2017-04-04T05:12:11.164Z,17.99
2017-04-04T05:12:39.410Z,17.98
2017-04-04T05:13:07.582Z,17.9
2017-04-04T05:13:35.718Z,17.95
2017-04-04T05:14:03.948Z,17.94
2017-04-04T05:14:32.149Z,17.95
2017-04-04T05:15:00.407Z,18.03
2017-04-04T05:15:28.642Z,17.98
2017-04-04T05:15:56.730Z,18.06
2017-04-04T05:16:24.891Z,18.03
2017-04-04T05:16:52.990Z,18.01
2017-04-04T05:17:21.250Z,18.02
2017-04-04T05:17:49.415Z,17.96
2017-04-04T05:18:17.657Z,17.98
2017-04-04T05:18:45.939Z,17.98
2017-04-04T05:19:14.214Z,17.98
2017-04-04T05:19:42.294Z,18.03
2017-04-04T05:20:10.498Z,17.95
2017-04-04T05:20:38.495Z,17.96
2017-04-04T05:21:06.732Z,18.03
2017-04-04T05:21:34.909Z,17.94
2017-04-04T05:22:03.001Z,17.95
2017-04-04T05:22:31.162Z,17.96
2017-04-04T05:22:59.481Z,17.87
2017-04-04T05:23:27.638Z,17.98
2017-04-04T05:23:55.703Z,18.01
2017-04-04T05:24:23.953Z,17.99
2017-04-04T05:24:52.265Z,17.96
2017-04-04T05:25:20.215Z,17.99
2017-04-04T05:25:48.244Z,18.02
2017-04-04T05:26:16.308Z,17.96
2017-04-04T05:26:44.481Z,18.01
2017-04-04T05:27:12.584Z,17.92
2017-04-04T05:27:40.784Z,17.98
2017-04-04T05:28:08.742Z,17.99
2017-04-04T05:28:36.873Z,17.96
2017-04-04T05:29:04.895Z,17.95
2017-04-04T05:29:33.131Z,17.99
2017-04-04T05:30:01.383Z,17.92
2017-04-04T05:30:29.652Z,17.92
2017-04-04T05:30:57.786Z,17.94
2017-04-04T05:31:26.011Z,17.98
2017-04-04T05:31:54.202Z,18.01
2017-04-04T05:32:22.461Z,17.96
2017-04-04T05:32:50.695Z,17.87
2017-04-04T05:33:18.848Z,17.8
2017-04-04T05:33:47.073Z,17.79
2017-04-04T05:34:15.325Z,17.84
2017-04-04T05:34:43.364Z,17.8
2017-04-04T05:35:11.519Z,17.87
2017-04-04T05:35:39.762Z,17.84
2017-04-04T05:36:08.009Z,17.88
2017-04-04T05:36:36.188Z,17.86
2017-04-04T05:37:04.294Z,17.87
2017-04-04T05:37:32.486Z,17.92
2017-04-04T05:38:00.644Z,17.87
2017-04-04T05:38:28.811Z,17.9
2017-04-04T05:38:56.935Z,17.79
2017-04-04T05:39:25.200Z,17.86
2017-04-04T05:39:53.439Z,17.86
2017-04-04T05:40:21.671Z,17.84
2017-04-04T05:40:49.895Z,17.8
2017-04-04T05:41:18.066Z,17.86
2017-04-04T05:41:46.036Z,17.79
2017-04-04T05:42:14.292Z,17.84
2017-04-04T05:42:42.411Z,17.81
2017-04-04T05:43:10.588Z,17.94
2017-04-04T05:43:38.698Z,17.9
2017-04-04T05:44:06.871Z,17.81
2017-04-04T05:44:35.118Z,17.8
2017-04-04T05:45:03.210Z,17.87
2017-04-04T05:45:31.470Z,17.9
2017-04-04T05:45:59.622Z,17.84
2017-04-04T05:46:27.837Z,17.88
2017-04-04T05:46:56.064Z,17.9
2017-04-04T05:47:24.301Z,17.84
2017-04-04T05:47:52.465Z,17.68
2017-04-04T05:48:20.695Z,17.77
2017-04-04T05:48:48.627Z,17.65
2017-04-04T05:49:16.891Z,17.66
2017-04-04T05:49:45.137Z,17.62
2017-04-04T05:50:13.108Z,17.68
2017-04-04T05:50:41.242Z,17.63
2017-04-04T05:51:09.394Z,17.6
2017-04-04T05:51:37.620Z,17.71
2017-04-04T05:52:05.732Z,17.65
2017-04-04T05:52:33.881Z,17.6
2017-04-04T05:53:02.046Z,17.63
2017-04-04T05:53:30.200Z,17.66
2017-04-04T05:53:58.431Z,17.66
2017-04-04T05:54:26.461Z,17.68
2017-04-04T05:54:54.638Z,17.6
2017-04-04T05:55:22.741Z,17.6
2017-04-04T05:55:51.031Z,17.62
2017-04-04T05:56:19.153Z,17.62
2017-04-04T05:56:47.233Z,17.66
2017-04-04T05:57:15.418Z,17.65
2017-04-04T05:57:43.648Z,17.63
2017-04-04T05:58:11.764Z,17.68
2017-04-04T05:58:39.915Z,17.69
2017-04-04T05:59:08.138Z,17.62
2017-04-04T05:59:36.420Z,17.65
2017-04-04T06:00:04.659Z,17.63
2017-04-04T06:00:32.741Z,17.6
2017-04-04T06:01:01.014Z,17.6
2017-04-04T06:01:29.149Z,17.62
2017-04-04T06:01:57.192Z,17.55
2017-04-04T06:02:25.137Z,17.57
2017-04-04T06:02:53.177Z,17.58
2017-04-04T06:03:21.307Z,17.62
2017-04-04T06:03:49.547Z,17.5
2017-04-04T06:04:17.706Z,17.54
2017-04-04T06:04:45.931Z,17.52
2017-04-04T06:05:14.217Z,17.54